Terminal Aerodrome Forecast
Issued by NWS

Home | Current Version | Previous Version | Text Only | Print | Product List | Glossary On
Versions: 1 2 3 4 5 6 7 8 9 10 11 12 13 14 15 16 17 18 19 20 21 22 23 24 25
000
FTUS43 KILX 251100
TAFBMI
TAF
KBMI 251129Z 2512/2612 27006KT 6SM BR OVC004
      TEMPO 2512/2515 2SM BR OVC002
     FM251600 31008KT P6SM SCT015
     FM251700 31010KT P6SM SKC
     FM252300 31005KT P6SM SKC=

USA.gov is the U.S. government's official web portal to all federal, state and local government web resources and services.